sensor_id;sensor_type;location;lat;lon;timestamp;P1;durP1;ratioP1;P2;durP2;ratioP2
16504;SDS011;8365;51.030;4.696;2023-05-14T00:01:08;38.07;;;34.03;;
16504;SDS011;8365;51.030;4.696;2023-05-14T00:03:38;44.93;;;35.73;;
16504;SDS011;8365;51.030;4.696;2023-05-14T00:06:12;37.90;;;33.47;;
16504;SDS011;8365;51.030;4.696;2023-05-14T00:08:42;38.23;;;34.13;;
16504;SDS011;8365;51.030;4.696;2023-05-14T00:11:13;40.77;;;36.40;;
16504;SDS011;8365;51.030;4.696;2023-05-14T00:13:43;40.40;;;35.97;;
16504;SDS011;8365;51.030;4.696;2023-05-14T00:16:14;40.23;;;35.67;;
16504;SDS011;8365;51.030;4.696;2023-05-14T00:18:45;40.93;;;36.57;;
16504;SDS011;8365;51.030;4.696;2023-05-14T00:21:15;44.50;;;37.10;;
16504;SDS011;8365;51.030;4.696;2023-05-14T00:23:46;44.73;;;38.20;;
16504;SDS011;8365;51.030;4.696;2023-05-14T00:26:16;40.53;;;36.20;;
16504;SDS011;8365;51.030;4.696;2023-05-14T00:28:47;41.80;;;37.23;;
16504;SDS011;8365;51.030;4.696;2023-05-14T00:31:18;40.73;;;36.63;;
16504;SDS011;8365;51.030;4.696;2023-05-14T00:33:48;41.57;;;37.37;;
16504;SDS011;8365;51.030;4.696;2023-05-14T00:36:19;42.37;;;37.77;;
16504;SDS011;8365;51.030;4.696;2023-05-14T00:38:49;42.43;;;36.97;;
16504;SDS011;8365;51.030;4.696;2023-05-14T00:41:21;42.83;;;38.13;;
16504;SDS011;8365;51.030;4.696;2023-05-14T00:43:52;42.63;;;37.83;;
16504;SDS011;8365;51.030;4.696;2023-05-14T00:46:22;44.93;;;38.00;;
16504;SDS011;8365;51.030;4.696;2023-05-14T00:48:53;42.10;;;37.53;;
16504;SDS011;8365;51.030;4.696;2023-05-14T00:51:23;45.47;;;39.90;;
16504;SDS011;8365;51.030;4.696;2023-05-14T00:53:54;43.20;;;38.50;;
16504;SDS011;8365;51.030;4.696;2023-05-14T00:56:25;47.53;;;38.83;;
16504;SDS011;8365;51.030;4.696;2023-05-14T00:58:58;43.60;;;38.13;;
16504;SDS011;8365;51.030;4.696;2023-05-14T01:01:29;44.30;;;39.57;;
16504;SDS011;8365;51.030;4.696;2023-05-14T01:04:00;44.70;;;39.67;;
16504;SDS011;8365;51.030;4.696;2023-05-14T01:06:45;52.67;;;41.17;;
16504;SDS011;8365;51.030;4.696;2023-05-14T01:12:23;44.63;;;40.00;;
16504;SDS011;8365;51.030;4.696;2023-05-14T01:15:11;44.20;;;38.27;;
16504;SDS011;8365;51.030;4.696;2023-05-14T01:17:58;44.60;;;39.67;;
16504;SDS011;8365;51.030;4.696;2023-05-14T01:20:32;42.87;;;38.13;;
16504;SDS011;8365;51.030;4.696;2023-05-14T01:23:03;45.03;;;40.17;;
16504;SDS011;8365;51.030;4.696;2023-05-14T01:25:33;46.43;;;39.80;;
16504;SDS011;8365;51.030;4.696;2023-05-14T01:30:52;44.90;;;39.90;;
16504;SDS011;8365;51.030;4.696;2023-05-14T01:33:28;46.77;;;40.57;;
16504;SDS011;8365;51.030;4.696;2023-05-14T01:36:01;46.30;;;39.77;;
16504;SDS011;8365;51.030;4.696;2023-05-14T01:38:32;47.37;;;40.43;;
16504;SDS011;8365;51.030;4.696;2023-05-14T01:41:06;44.50;;;39.10;;
16504;SDS011;8365;51.030;4.696;2023-05-14T01:43:37;49.80;;;40.40;;
16504;SDS011;8365;51.030;4.696;2023-05-14T01:46:08;47.40;;;40.87;;
16504;SDS011;8365;51.030;4.696;2023-05-14T01:48:38;47.90;;;41.77;;
16504;SDS011;8365;51.030;4.696;2023-05-14T01:54:37;46.70;;;39.63;;
16504;SDS011;8365;51.030;4.696;2023-05-14T01:57:07;47.07;;;40.07;;
16504;SDS011;8365;51.030;4.696;2023-05-14T01:59:38;47.87;;;41.03;;
16504;SDS011;8365;51.030;4.696;2023-05-14T02:02:08;47.07;;;40.23;;
16504;SDS011;8365;51.030;4.696;2023-05-14T02:04:39;47.73;;;41.30;;
16504;SDS011;8365;51.030;4.696;2023-05-14T02:07:09;47.97;;;41.47;;
16504;SDS011;8365;51.030;4.696;2023-05-14T02:09:40;47.90;;;40.97;;
16504;SDS011;8365;51.030;4.696;2023-05-14T02:12:10;48.17;;;41.43;;
16504;SDS011;8365;51.030;4.696;2023-05-14T02:14:41;47.17;;;42.03;;
16504;SDS011;8365;51.030;4.696;2023-05-14T02:17:14;48.40;;;43.20;;
16504;SDS011;8365;51.030;4.696;2023-05-14T02:19:46;50.70;;;43.30;;
16504;SDS011;8365;51.030;4.696;2023-05-14T02:22:17;50.07;;;44.07;;
16504;SDS011;8365;51.030;4.696;2023-05-14T02:24:47;49.00;;;42.53;;
16504;SDS011;8365;51.030;4.696;2023-05-14T02:27:18;48.90;;;43.57;;
16504;SDS011;8365;51.030;4.696;2023-05-14T02:29:50;48.13;;;42.73;;
16504;SDS011;8365;51.030;4.696;2023-05-14T02:32:21;50.33;;;44.23;;
16504;SDS011;8365;51.030;4.696;2023-05-14T02:34:52;52.20;;;44.37;;
16504;SDS011;8365;51.030;4.696;2023-05-14T02:37:22;50.37;;;44.97;;
16504;SDS011;8365;51.030;4.696;2023-05-14T02:39:53;52.60;;;45.97;;
16504;SDS011;8365;51.030;4.696;2023-05-14T02:42:23;56.70;;;46.63;;
16504;SDS011;8365;51.030;4.696;2023-05-14T02:44:53;56.73;;;46.23;;
16504;SDS011;8365;51.030;4.696;2023-05-14T02:47:24;53.57;;;46.60;;
16504;SDS011;8365;51.030;4.696;2023-05-14T02:49:54;56.60;;;46.53;;
16504;SDS011;8365;51.030;4.696;2023-05-14T02:52:25;54.00;;;47.43;;
16504;SDS011;8365;51.030;4.696;2023-05-14T02:54:55;56.73;;;48.67;;
16504;SDS011;8365;51.030;4.696;2023-05-14T02:57:26;54.93;;;47.33;;
16504;SDS011;8365;51.030;4.696;2023-05-14T02:59:56;58.77;;;48.90;;
16504;SDS011;8365;51.030;4.696;2023-05-14T03:02:27;56.63;;;48.13;;
16504;SDS011;8365;51.030;4.696;2023-05-14T03:04:57;58.97;;;48.93;;
16504;SDS011;8365;51.030;4.696;2023-05-14T03:07:28;57.57;;;48.80;;
16504;SDS011;8365;51.030;4.696;2023-05-14T03:09:58;59.03;;;47.77;;
16504;SDS011;8365;51.030;4.696;2023-05-14T03:12:29;62.57;;;48.80;;
16504;SDS011;8365;51.030;4.696;2023-05-14T03:15:00;57.13;;;49.20;;
16504;SDS011;8365;51.030;4.696;2023-05-14T03:17:30;55.93;;;47.93;;
16504;SDS011;8365;51.030;4.696;2023-05-14T03:20:01;58.10;;;49.33;;
16504;SDS011;8365;51.030;4.696;2023-05-14T03:22:32;56.97;;;49.27;;
16504;SDS011;8365;51.030;4.696;2023-05-14T03:25:02;62.17;;;48.60;;
16504;SDS011;8365;51.030;4.696;2023-05-14T03:27:33;60.80;;;49.77;;
16504;SDS011;8365;51.030;4.696;2023-05-14T03:30:04;66.27;;;51.03;;
16504;SDS011;8365;51.030;4.696;2023-05-14T03:32:35;64.27;;;49.80;;
16504;SDS011;8365;51.030;4.696;2023-05-14T03:35:06;64.53;;;51.53;;
16504;SDS011;8365;51.030;4.696;2023-05-14T03:37:37;65.33;;;53.80;;
16504;SDS011;8365;51.030;4.696;2023-05-14T03:40:07;64.80;;;53.10;;
16504;SDS011;8365;51.030;4.696;2023-05-14T03:42:39;67.33;;;51.93;;
16504;SDS011;8365;51.030;4.696;2023-05-14T03:45:12;64.00;;;52.07;;
16504;SDS011;8365;51.030;4.696;2023-05-14T03:47:42;65.43;;;52.63;;
16504;SDS011;8365;51.030;4.696;2023-05-14T03:50:13;62.93;;;50.23;;
16504;SDS011;8365;51.030;4.696;2023-05-14T03:52:43;65.47;;;50.43;;
16504;SDS011;8365;51.030;4.696;2023-05-14T03:55:14;64.80;;;52.13;;
16504;SDS011;8365;51.030;4.696;2023-05-14T03:57:46;63.03;;;48.93;;
16504;SDS011;8365;51.030;4.696;2023-05-14T04:00:17;63.30;;;49.83;;
16504;SDS011;8365;51.030;4.696;2023-05-14T04:02:47;62.07;;;50.53;;
16504;SDS011;8365;51.030;4.696;2023-05-14T04:05:18;65.03;;;50.53;;
16504;SDS011;8365;51.030;4.696;2023-05-14T04:07:48;66.53;;;52.97;;
16504;SDS011;8365;51.030;4.696;2023-05-14T04:10:19;60.40;;;48.80;;
16504;SDS011;8365;51.030;4.696;2023-05-14T04:12:49;68.70;;;52.83;;
16504;SDS011;8365;51.030;4.696;2023-05-14T04:15:20;69.90;;;51.90;;
16504;SDS011;8365;51.030;4.696;2023-05-14T04:17:51;63.77;;;50.00;;
16504;SDS011;8365;51.030;4.696;2023-05-14T04:20:21;64.07;;;50.03;;
16504;SDS011;8365;51.030;4.696;2023-05-14T04:22:52;62.00;;;49.57;;
16504;SDS011;8365;51.030;4.696;2023-05-14T04:25:23;67.50;;;51.37;;
16504;SDS011;8365;51.030;4.696;2023-05-14T04:27:53;68.70;;;52.50;;
16504;SDS011;8365;51.030;4.696;2023-05-14T04:30:24;65.67;;;51.30;;
16504;SDS011;8365;51.030;4.696;2023-05-14T04:32:55;66.90;;;50.33;;
16504;SDS011;8365;51.030;4.696;2023-05-14T04:35:25;64.57;;;51.17;;
16504;SDS011;8365;51.030;4.696;2023-05-14T04:37:56;65.40;;;50.90;;
16504;SDS011;8365;51.030;4.696;2023-05-14T04:40:27;65.60;;;50.77;;
16504;SDS011;8365;51.030;4.696;2023-05-14T04:42:57;65.67;;;50.43;;
16504;SDS011;8365;51.030;4.696;2023-05-14T04:45:28;65.10;;;51.33;;
16504;SDS011;8365;51.030;4.696;2023-05-14T04:47:58;63.87;;;50.87;;
16504;SDS011;8365;51.030;4.696;2023-05-14T04:50:29;70.77;;;53.53;;
16504;SDS011;8365;51.030;4.696;2023-05-14T04:52:59;64.93;;;50.03;;
16504;SDS011;8365;51.030;4.696;2023-05-14T04:55:30;67.87;;;50.37;;
16504;SDS011;8365;51.030;4.696;2023-05-14T04:58:00;72.83;;;53.70;;
16504;SDS011;8365;51.030;4.696;2023-05-14T05:00:31;66.77;;;50.83;;
16504;SDS011;8365;51.030;4.696;2023-05-14T05:03:02;68.73;;;51.70;;
16504;SDS011;8365;51.030;4.696;2023-05-14T05:05:33;69.53;;;51.17;;
16504;SDS011;8365;51.030;4.696;2023-05-14T05:08:04;65.13;;;49.00;;
16504;SDS011;8365;51.030;4.696;2023-05-14T05:10:35;66.23;;;49.00;;
16504;SDS011;8365;51.030;4.696;2023-05-14T05:13:05;66.50;;;48.20;;
16504;SDS011;8365;51.030;4.696;2023-05-14T05:15:35;70.93;;;49.17;;
16504;SDS011;8365;51.030;4.696;2023-05-14T05:18:06;72.63;;;50.70;;
16504;SDS011;8365;51.030;4.696;2023-05-14T05:20:39;73.70;;;49.03;;
16504;SDS011;8365;51.030;4.696;2023-05-14T05:23:10;72.53;;;49.57;;
16504;SDS011;8365;51.030;4.696;2023-05-14T05:25:40;71.17;;;50.13;;
16504;SDS011;8365;51.030;4.696;2023-05-14T05:28:11;75.37;;;51.17;;
16504;SDS011;8365;51.030;4.696;2023-05-14T05:30:41;75.00;;;52.10;;
16504;SDS011;8365;51.030;4.696;2023-05-14T05:33:14;72.97;;;50.40;;
16504;SDS011;8365;51.030;4.696;2023-05-14T05:35:45;68.17;;;49.57;;
16504;SDS011;8365;51.030;4.696;2023-05-14T05:38:19;71.70;;;50.47;;
16504;SDS011;8365;51.030;4.696;2023-05-14T05:40:49;75.97;;;50.73;;
16504;SDS011;8365;51.030;4.696;2023-05-14T05:43:20;74.27;;;50.43;;
16504;SDS011;8365;51.030;4.696;2023-05-14T05:45:50;81.10;;;51.03;;
16504;SDS011;8365;51.030;4.696;2023-05-14T05:48:20;70.90;;;51.73;;
16504;SDS011;8365;51.030;4.696;2023-05-14T05:50:51;73.10;;;49.53;;
16504;SDS011;8365;51.030;4.696;2023-05-14T05:53:22;69.73;;;50.13;;
16504;SDS011;8365;51.030;4.696;2023-05-14T05:55:52;72.60;;;50.57;;
16504;SDS011;8365;51.030;4.696;2023-05-14T05:58:23;73.53;;;51.07;;
16504;SDS011;8365;51.030;4.696;2023-05-14T06:00:53;72.13;;;49.23;;
16504;SDS011;8365;51.030;4.696;2023-05-14T06:03:24;65.07;;;48.10;;
16504;SDS011;8365;51.030;4.696;2023-05-14T06:05:56;69.57;;;48.83;;
16504;SDS011;8365;51.030;4.696;2023-05-14T06:08:26;69.17;;;48.37;;
16504;SDS011;8365;51.030;4.696;2023-05-14T06:10:56;65.13;;;47.87;;
16504;SDS011;8365;51.030;4.696;2023-05-14T06:13:27;61.87;;;46.30;;
16504;SDS011;8365;51.030;4.696;2023-05-14T06:15:57;62.20;;;46.13;;
16504;SDS011;8365;51.030;4.696;2023-05-14T06:18:28;60.90;;;44.77;;
16504;SDS011;8365;51.030;4.696;2023-05-14T06:20:58;64.57;;;46.17;;
16504;SDS011;8365;51.030;4.696;2023-05-14T06:23:29;61.60;;;45.37;;
16504;SDS011;8365;51.030;4.696;2023-05-14T06:26:01;61.50;;;46.63;;
16504;SDS011;8365;51.030;4.696;2023-05-14T06:28:32;68.90;;;46.53;;
16504;SDS011;8365;51.030;4.696;2023-05-14T06:31:02;65.80;;;46.70;;
16504;SDS011;8365;51.030;4.696;2023-05-14T06:33:33;71.43;;;47.07;;
16504;SDS011;8365;51.030;4.696;2023-05-14T06:36:04;71.63;;;49.07;;
16504;SDS011;8365;51.030;4.696;2023-05-14T06:38:35;71.73;;;49.23;;
16504;SDS011;8365;51.030;4.696;2023-05-14T06:41:06;71.67;;;46.50;;
16504;SDS011;8365;51.030;4.696;2023-05-14T06:43:37;67.90;;;46.90;;
16504;SDS011;8365;51.030;4.696;2023-05-14T06:46:07;67.00;;;47.67;;
16504;SDS011;8365;51.030;4.696;2023-05-14T06:48:37;68.97;;;48.03;;
16504;SDS011;8365;51.030;4.696;2023-05-14T06:51:08;70.37;;;49.63;;
16504;SDS011;8365;51.030;4.696;2023-05-14T06:53:39;71.13;;;47.90;;
16504;SDS011;8365;51.030;4.696;2023-05-14T06:56:12;65.20;;;47.33;;
16504;SDS011;8365;51.030;4.696;2023-05-14T06:58:43;71.10;;;47.47;;
16504;SDS011;8365;51.030;4.696;2023-05-14T07:01:14;66.57;;;45.73;;
16504;SDS011;8365;51.030;4.696;2023-05-14T07:03:45;63.77;;;45.77;;
16504;SDS011;8365;51.030;4.696;2023-05-14T07:06:16;69.63;;;46.87;;
16504;SDS011;8365;51.030;4.696;2023-05-14T07:08:46;62.20;;;45.90;;
16504;SDS011;8365;51.030;4.696;2023-05-14T07:11:17;62.70;;;46.53;;
16504;SDS011;8365;51.030;4.696;2023-05-14T07:13:47;64.70;;;45.33;;
16504;SDS011;8365;51.030;4.696;2023-05-14T07:16:18;57.97;;;43.43;;
16504;SDS011;8365;51.030;4.696;2023-05-14T07:18:48;58.60;;;44.30;;
16504;SDS011;8365;51.030;4.696;2023-05-14T07:21:19;61.03;;;46.37;;
16504;SDS011;8365;51.030;4.696;2023-05-14T07:23:51;60.30;;;45.70;;
16504;SDS011;8365;51.030;4.696;2023-05-14T07:26:22;62.37;;;45.53;;
16504;SDS011;8365;51.030;4.696;2023-05-14T07:28:55;59.17;;;44.93;;
16504;SDS011;8365;51.030;4.696;2023-05-14T07:31:26;59.00;;;45.53;;
16504;SDS011;8365;51.030;4.696;2023-05-14T07:33:56;62.83;;;45.70;;
16504;SDS011;8365;51.030;4.696;2023-05-14T07:36:29;63.63;;;43.37;;
16504;SDS011;8365;51.030;4.696;2023-05-14T07:39:00;56.50;;;43.53;;
16504;SDS011;8365;51.030;4.696;2023-05-14T07:41:31;61.90;;;43.93;;
16504;SDS011;8365;51.030;4.696;2023-05-14T07:44:01;57.70;;;41.87;;
16504;SDS011;8365;51.030;4.696;2023-05-14T07:46:31;54.50;;;42.23;;
16504;SDS011;8365;51.030;4.696;2023-05-14T07:49:02;50.57;;;40.13;;
16504;SDS011;8365;51.030;4.696;2023-05-14T07:51:32;50.43;;;41.30;;
16504;SDS011;8365;51.030;4.696;2023-05-14T07:54:07;46.70;;;38.80;;
16504;SDS011;8365;51.030;4.696;2023-05-14T07:56:38;46.53;;;37.90;;
16504;SDS011;8365;51.030;4.696;2023-05-14T07:59:08;44.20;;;37.17;;
16504;SDS011;8365;51.030;4.696;2023-05-14T08:01:39;45.87;;;36.50;;
16504;SDS011;8365;51.030;4.696;2023-05-14T08:04:09;41.03;;;35.07;;
16504;SDS011;8365;51.030;4.696;2023-05-14T08:06:45;40.47;;;36.03;;
16504;SDS011;8365;51.030;4.696;2023-05-14T08:09:15;43.00;;;35.37;;
16504;SDS011;8365;51.030;4.696;2023-05-14T08:11:48;41.37;;;33.47;;
16504;SDS011;8365;51.030;4.696;2023-05-14T08:14:18;35.23;;;31.17;;
16504;SDS011;8365;51.030;4.696;2023-05-14T08:16:50;36.60;;;32.57;;
16504;SDS011;8365;51.030;4.696;2023-05-14T08:19:23;39.80;;;30.97;;
16504;SDS011;8365;51.030;4.696;2023-05-14T08:21:56;32.43;;;29.07;;
16504;SDS011;8365;51.030;4.696;2023-05-14T08:24:29;31.67;;;27.40;;
16504;SDS011;8365;51.030;4.696;2023-05-14T08:26:59;31.43;;;27.70;;
16504;SDS011;8365;51.030;4.696;2023-05-14T08:29:31;29.67;;;26.47;;
16504;SDS011;8365;51.030;4.696;2023-05-14T08:32:01;34.22;;;29.00;;
16504;SDS011;8365;51.030;4.696;2023-05-14T08:34:32;30.90;;;27.80;;
16504;SDS011;8365;51.030;4.696;2023-05-14T08:37:03;31.07;;;27.77;;
16504;SDS011;8365;51.030;4.696;2023-05-14T08:39:33;31.45;;;28.02;;
16504;SDS011;8365;51.030;4.696;2023-05-14T08:42:05;31.83;;;28.00;;
16504;SDS011;8365;51.030;4.696;2023-05-14T08:44:45;38.85;;;27.70;;
16504;SDS011;8365;51.030;4.696;2023-05-14T08:47:20;30.98;;;27.65;;
16504;SDS011;8365;51.030;4.696;2023-05-14T08:49:57;30.55;;;27.00;;
16504;SDS011;8365;51.030;4.696;2023-05-14T08:52:36;30.20;;;27.13;;
16504;SDS011;8365;51.030;4.696;2023-05-14T08:55:09;29.42;;;26.25;;
16504;SDS011;8365;51.030;4.696;2023-05-14T08:57:41;28.75;;;25.70;;
16504;SDS011;8365;51.030;4.696;2023-05-14T09:00:11;29.23;;;26.30;;
16504;SDS011;8365;51.030;4.696;2023-05-14T09:02:44;32.13;;;26.30;;
16504;SDS011;8365;51.030;4.696;2023-05-14T09:05:16;29.52;;;26.55;;
16504;SDS011;8365;51.030;4.696;2023-05-14T09:07:48;29.58;;;26.50;;
16504;SDS011;8365;51.030;4.696;2023-05-14T09:10:19;29.40;;;26.05;;
16504;SDS011;8365;51.030;4.696;2023-05-14T09:12:50;29.23;;;25.88;;
16504;SDS011;8365;51.030;4.696;2023-05-14T09:15:20;29.40;;;26.42;;
16504;SDS011;8365;51.030;4.696;2023-05-14T09:17:56;28.02;;;25.02;;
16504;SDS011;8365;51.030;4.696;2023-05-14T09:20:27;28.20;;;25.20;;
16504;SDS011;8365;51.030;4.696;2023-05-14T09:22:57;26.23;;;23.42;;
16504;SDS011;8365;51.030;4.696;2023-05-14T09:25:31;26.17;;;23.67;;
16504;SDS011;8365;51.030;4.696;2023-05-14T09:28:05;25.58;;;23.17;;
16504;SDS011;8365;51.030;4.696;2023-05-14T09:30:37;27.67;;;24.80;;
16504;SDS011;8365;51.030;4.696;2023-05-14T09:33:07;28.38;;;25.60;;
16504;SDS011;8365;51.030;4.696;2023-05-14T09:35:39;27.25;;;24.65;;
16504;SDS011;8365;51.030;4.696;2023-05-14T09:38:12;27.65;;;25.05;;
16504;SDS011;8365;51.030;4.696;2023-05-14T09:40:42;27.17;;;24.67;;
16504;SDS011;8365;51.030;4.696;2023-05-14T09:43:14;27.90;;;25.02;;
16504;SDS011;8365;51.030;4.696;2023-05-14T09:45:47;28.00;;;25.27;;
16504;SDS011;8365;51.030;4.696;2023-05-14T09:48:18;27.42;;;24.63;;
16504;SDS011;8365;51.030;4.696;2023-05-14T09:50:49;26.80;;;24.20;;
16504;SDS011;8365;51.030;4.696;2023-05-14T09:53:21;27.40;;;24.90;;
16504;SDS011;8365;51.030;4.696;2023-05-14T09:55:51;29.40;;;26.50;;
16504;SDS011;8365;51.030;4.696;2023-05-14T09:58:22;29.58;;;26.75;;
16504;SDS011;8365;51.030;4.696;2023-05-14T10:00:52;30.38;;;27.52;;
16504;SDS011;8365;51.030;4.696;2023-05-14T10:03:24;31.20;;;28.00;;
16504;SDS011;8365;51.030;4.696;2023-05-14T10:05:57;29.20;;;26.60;;
16504;SDS011;8365;51.030;4.696;2023-05-14T10:08:33;30.17;;;27.30;;
16504;SDS011;8365;51.030;4.696;2023-05-14T10:11:07;30.67;;;27.70;;
16504;SDS011;8365;51.030;4.696;2023-05-14T10:13:44;29.60;;;26.90;;
16504;SDS011;8365;51.030;4.696;2023-05-14T10:16:20;29.00;;;26.10;;
16504;SDS011;8365;51.030;4.696;2023-05-14T10:18:59;30.05;;;27.25;;
16504;SDS011;8365;51.030;4.696;2023-05-14T10:21:35;26.38;;;23.92;;
16504;SDS011;8365;51.030;4.696;2023-05-14T10:24:06;25.92;;;23.63;;
16504;SDS011;8365;51.030;4.696;2023-05-14T10:26:40;25.23;;;22.92;;
16504;SDS011;8365;51.030;4.696;2023-05-14T10:29:11;24.45;;;22.00;;
16504;SDS011;8365;51.030;4.696;2023-05-14T10:31:51;23.88;;;21.73;;
16504;SDS011;8365;51.030;4.696;2023-05-14T10:34:38;24.65;;;21.88;;
16504;SDS011;8365;51.030;4.696;2023-05-14T10:37:11;23.95;;;21.73;;
16504;SDS011;8365;51.030;4.696;2023-05-14T10:42:18;23.52;;;21.38;;
16504;SDS011;8365;51.030;4.696;2023-05-14T10:45:02;23.48;;;21.15;;
16504;SDS011;8365;51.030;4.696;2023-05-14T10:47:41;21.63;;;19.73;;
16504;SDS011;8365;51.030;4.696;2023-05-14T10:50:16;22.52;;;20.58;;
16504;SDS011;8365;51.030;4.696;2023-05-14T10:52:47;22.95;;;20.95;;
16504;SDS011;8365;51.030;4.696;2023-05-14T10:55:18;25.77;;;23.58;;
16504;SDS011;8365;51.030;4.696;2023-05-14T10:57:49;25.23;;;22.92;;
16504;SDS011;8365;51.030;4.696;2023-05-14T11:00:21;24.98;;;22.83;;
16504;SDS011;8365;51.030;4.696;2023-05-14T11:02:56;25.10;;;23.00;;
16504;SDS011;8365;51.030;4.696;2023-05-14T11:05:27;24.15;;;22.15;;
16504;SDS011;8365;51.030;4.696;2023-05-14T11:07:58;24.05;;;22.10;;
16504;SDS011;8365;51.030;4.696;2023-05-14T11:10:30;23.73;;;21.52;;
16504;SDS011;8365;51.030;4.696;2023-05-14T11:13:01;22.95;;;20.95;;
16504;SDS011;8365;51.030;4.696;2023-05-14T11:15:32;23.20;;;21.13;;
16504;SDS011;8365;51.030;4.696;2023-05-14T11:18:02;23.55;;;21.35;;
16504;SDS011;8365;51.030;4.696;2023-05-14T11:20:34;22.73;;;20.73;;
16504;SDS011;8365;51.030;4.696;2023-05-14T11:23:05;22.02;;;20.02;;
16504;SDS011;8365;51.030;4.696;2023-05-14T11:25:35;21.85;;;20.05;;
16504;SDS011;8365;51.030;4.696;2023-05-14T11:28:06;21.73;;;19.65;;
16504;SDS011;8365;51.030;4.696;2023-05-14T11:30:36;24.05;;;21.95;;
16504;SDS011;8365;51.030;4.696;2023-05-14T11:33:10;24.95;;;22.83;;
16504;SDS011;8365;51.030;4.696;2023-05-14T11:35:41;24.85;;;22.85;;
16504;SDS011;8365;51.030;4.696;2023-05-14T11:38:15;27.20;;;24.48;;
16504;SDS011;8365;51.030;4.696;2023-05-14T11:40:55;26.60;;;24.08;;
16504;SDS011;8365;51.030;4.696;2023-05-14T11:43:27;27.88;;;25.35;;
16504;SDS011;8365;51.030;4.696;2023-05-14T11:45:58;27.15;;;24.88;;
16504;SDS011;8365;51.030;4.696;2023-05-14T11:48:28;25.90;;;23.60;;
16504;SDS011;8365;51.030;4.696;2023-05-14T11:51:01;24.05;;;21.75;;
16504;SDS011;8365;51.030;4.696;2023-05-14T11:53:33;26.05;;;23.83;;
16504;SDS011;8365;51.030;4.696;2023-05-14T11:56:03;24.83;;;22.75;;
16504;SDS011;8365;51.030;4.696;2023-05-14T11:58:34;26.98;;;24.40;;
16504;SDS011;8365;51.030;4.696;2023-05-14T12:01:04;25.70;;;23.50;;
16504;SDS011;8365;51.030;4.696;2023-05-14T12:03:35;26.98;;;24.67;;
16504;SDS011;8365;51.030;4.696;2023-05-14T12:06:08;26.77;;;24.58;;
16504;SDS011;8365;51.030;4.696;2023-05-14T12:08:39;27.75;;;25.42;;
16504;SDS011;8365;51.030;4.696;2023-05-14T12:11:09;26.40;;;24.05;;
16504;SDS011;8365;51.030;4.696;2023-05-14T12:13:40;27.42;;;25.23;;
16504;SDS011;8365;51.030;4.696;2023-05-14T12:16:11;26.60;;;24.30;;
16504;SDS011;8365;51.030;4.696;2023-05-14T12:18:42;27.05;;;24.48;;
16504;SDS011;8365;51.030;4.696;2023-05-14T12:21:12;28.05;;;25.65;;
16504;SDS011;8365;51.030;4.696;2023-05-14T12:23:43;26.05;;;23.80;;
16504;SDS011;8365;51.030;4.696;2023-05-14T12:26:13;25.65;;;23.10;;
16504;SDS011;8365;51.030;4.696;2023-05-14T12:28:44;24.85;;;22.75;;
16504;SDS011;8365;51.030;4.696;2023-05-14T12:31:19;24.65;;;22.58;;
16504;SDS011;8365;51.030;4.696;2023-05-14T12:34:00;27.55;;;25.05;;
16504;SDS011;8365;51.030;4.696;2023-05-14T12:36:32;26.20;;;23.80;;
16504;SDS011;8365;51.030;4.696;2023-05-14T12:39:03;26.15;;;23.80;;
16504;SDS011;8365;51.030;4.696;2023-05-14T12:41:35;24.90;;;22.80;;
16504;SDS011;8365;51.030;4.696;2023-05-14T12:44:05;22.50;;;20.52;;
16504;SDS011;8365;51.030;4.696;2023-05-14T12:46:36;21.10;;;19.05;;
16504;SDS011;8365;51.030;4.696;2023-05-14T12:49:06;20.20;;;18.50;;
16504;SDS011;8365;51.030;4.696;2023-05-14T12:51:37;24.52;;;22.20;;
16504;SDS011;8365;51.030;4.696;2023-05-14T12:54:07;24.58;;;22.38;;
16504;SDS011;8365;51.030;4.696;2023-05-14T12:56:40;22.48;;;20.35;;
16504;SDS011;8365;51.030;4.696;2023-05-14T12:59:10;21.15;;;19.25;;
16504;SDS011;8365;51.030;4.696;2023-05-14T13:01:41;24.35;;;22.08;;
16504;SDS011;8365;51.030;4.696;2023-05-14T13:04:11;24.65;;;22.50;;
16504;SDS011;8365;51.030;4.696;2023-05-14T13:06:42;23.20;;;21.20;;
16504;SDS011;8365;51.030;4.696;2023-05-14T13:09:13;23.98;;;21.65;;
16504;SDS011;8365;51.030;4.696;2023-05-14T13:11:43;24.40;;;22.23;;
16504;SDS011;8365;51.030;4.696;2023-05-14T13:14:14;22.95;;;20.92;;
16504;SDS011;8365;51.030;4.696;2023-05-14T13:16:47;22.45;;;20.15;;
16504;SDS011;8365;51.030;4.696;2023-05-14T13:19:17;22.55;;;20.38;;
16504;SDS011;8365;51.030;4.696;2023-05-14T13:21:48;20.67;;;18.88;;
16504;SDS011;8365;51.030;4.696;2023-05-14T13:24:18;20.73;;;18.83;;
16504;SDS011;8365;51.030;4.696;2023-05-14T13:26:49;20.73;;;18.55;;
16504;SDS011;8365;51.030;4.696;2023-05-14T13:29:19;22.70;;;20.70;;
16504;SDS011;8365;51.030;4.696;2023-05-14T13:31:50;21.70;;;19.90;;
16504;SDS011;8365;51.030;4.696;2023-05-14T13:34:20;19.23;;;17.58;;
16504;SDS011;8365;51.030;4.696;2023-05-14T13:36:51;21.70;;;19.63;;
16504;SDS011;8365;51.030;4.696;2023-05-14T13:39:21;19.98;;;18.27;;
16504;SDS011;8365;51.030;4.696;2023-05-14T13:41:55;18.50;;;16.85;;
16504;SDS011;8365;51.030;4.696;2023-05-14T13:44:26;20.65;;;18.75;;
16504;SDS011;8365;51.030;4.696;2023-05-14T13:46:56;19.30;;;17.70;;
16504;SDS011;8365;51.030;4.696;2023-05-14T13:49:29;17.23;;;15.73;;
16504;SDS011;8365;51.030;4.696;2023-05-14T13:51:59;17.00;;;15.55;;
16504;SDS011;8365;51.030;4.696;2023-05-14T13:54:30;17.10;;;15.57;;
16504;SDS011;8365;51.030;4.696;2023-05-14T13:57:00;18.02;;;16.48;;
16504;SDS011;8365;51.030;4.696;2023-05-14T13:59:31;16.85;;;15.27;;
16504;SDS011;8365;51.030;4.696;2023-05-14T14:02:01;17.17;;;15.48;;
16504;SDS011;8365;51.030;4.696;2023-05-14T14:04:32;17.35;;;15.68;;
16504;SDS011;8365;51.030;4.696;2023-05-14T14:07:03;18.40;;;16.80;;
16504;SDS011;8365;51.030;4.696;2023-05-14T14:09:36;16.88;;;15.38;;
16504;SDS011;8365;51.030;4.696;2023-05-14T14:12:06;14.85;;;13.43;;
16504;SDS011;8365;51.030;4.696;2023-05-14T14:14:37;14.82;;;13.45;;
16504;SDS011;8365;51.030;4.696;2023-05-14T14:17:10;15.23;;;13.77;;
16504;SDS011;8365;51.030;4.696;2023-05-14T14:19:40;14.82;;;13.27;;
16504;SDS011;8365;51.030;4.696;2023-05-14T14:22:13;17.05;;;15.40;;
16504;SDS011;8365;51.030;4.696;2023-05-14T14:24:46;17.80;;;15.25;;
16504;SDS011;8365;51.030;4.696;2023-05-14T14:27:16;17.30;;;15.80;;
16504;SDS011;8365;51.030;4.696;2023-05-14T14:29:47;17.90;;;16.20;;
16504;SDS011;8365;51.030;4.696;2023-05-14T14:32:17;18.13;;;16.48;;
16504;SDS011;8365;51.030;4.696;2023-05-14T14:34:48;18.60;;;16.55;;
16504;SDS011;8365;51.030;4.696;2023-05-14T14:37:18;16.70;;;15.10;;
16504;SDS011;8365;51.030;4.696;2023-05-14T14:39:51;15.85;;;14.13;;
16504;SDS011;8365;51.030;4.696;2023-05-14T14:42:21;16.52;;;14.45;;
16504;SDS011;8365;51.030;4.696;2023-05-14T14:44:54;16.48;;;14.88;;
16504;SDS011;8365;51.030;4.696;2023-05-14T14:47:25;16.15;;;14.45;;
16504;SDS011;8365;51.030;4.696;2023-05-14T14:49:55;15.27;;;13.77;;
16504;SDS011;8365;51.030;4.696;2023-05-14T14:52:26;16.88;;;15.15;;
16504;SDS011;8365;51.030;4.696;2023-05-14T14:54:57;16.52;;;14.82;;
16504;SDS011;8365;51.030;4.696;2023-05-14T14:57:27;18.17;;;15.43;;
16504;SDS011;8365;51.030;4.696;2023-05-14T14:59:58;16.13;;;14.48;;
16504;SDS011;8365;51.030;4.696;2023-05-14T15:02:28;17.48;;;15.70;;
16504;SDS011;8365;51.030;4.696;2023-05-14T15:04:59;16.85;;;15.27;;
16504;SDS011;8365;51.030;4.696;2023-05-14T15:07:29;17.05;;;15.40;;
16504;SDS011;8365;51.030;4.696;2023-05-14T15:10:01;20.02;;;15.50;;